Hauptseite
METAR-TAF:

METAR-TAF

Flughäfen :

Flughafen Comiso

Comiso, Italien

Breite: 36-59-30N, Länge: 14-36-25E, Höhe: 190 m

Beobachtung

Neuester Wetterbericht von vor 20 Minuten, um 05:00 UTC
Wind 3 kt aus Ost/Nordost
Temperatur 18°C
Luftfeuchtigkeit 94%
Luftdruck 1020 hPa
Sichtweite 10 km oder mehr
keine Wolken unter 1500 m und keine Kumulonimbus oder Gewitterwolken

METAR: LICB 230500Z 06003KT CAVOK 18/17 Q1020

Zeit: 07:20 (05:20 UTC)

Prognose

Neuester Wetterbericht von vor 12 Stunden und 20 Minuten, um 17:00 UTC
Gültige Prognose vom 22 um 18 UTC bis 23 um 03 UTC
Wind 5 kt aus unterschiedlichen Richtungen
Sichtweite 10 km oder mehr
Aufgelockert bewölkt in der Höhe von 3000 ft

TAF: LICB 221700Z 2218/2303 VRB05KT 9999 SCT030

Wetterbeobachtungen und Prognosen von mehr als 4000 Flughäfen (METAR und TAF Bericht).

Die verfügbaren Stationen werden durch gelbe und rote Markierungen auf der Karte dargestellt.

Führen Sie die Maus auf sie, um den Namen der Station zu sehen.

Darauf klicken, um die Beobachtung von Wetterbeobachtungen und Prognosen zu sehen.

Um die Karte zu ändern : klicken Sie auf den grünen Tasten mit einem schwarzen Kreuz Zum Vergrößern, auf den grünen Button mit einem Gedankenstrich zu verkleinern, oder auf die grünen Pfeile für benachbarte Karten.


METAR-TAF: